Hovedside
METAR-TAF:

METAR-TAF

Lufthavner :

Kolding, Danmark

Vamdrup

breddegrad: 55-26N, lengdegrad: 009-20E, høyde over havet: 44 m

Gjeldene værobservasjon

Denne rapporten ble laget for 29 minutter siden, klokken 13:20 UTC
Vind 13 kt fra Nordøst
Temperatur -3°C
Luftfuktighet 80%
Trykk 1036 hPa
Sikt: 4000 m
Få skyer i en høyde av 1200 ft
Brutte skyer i en høyde av 2500 ft
lette snøbyger

METAR: EKVD 251320Z 04013KT 4000 -SHSN FEW012 BKN025 M03/M06 Q1036

Tid: 14:49 (13:49 UTC)

Varsel

Denne rapporten ble laget for 1 time og 51 minutter siden, klokken 11:58 UTC
Varsel gyldig fra 25. klokken 12 UTC til 25. klokken 16 UTC
Vind 13 kt fra Nordøst
Sikt 10 km eller mer
Brutte skyer i en høyde av 2000 ft
Midlertidig
fra 25. klokken 12 UTC til 25. klokken 16 UTC
Sikt: 2000 m
Spredte skyer i en høyde av 1500 ft, Tårnskyer (cumulus).
lette snøbyger

TAF: EKVD 251158Z 2512/2516 04013KT 9999 BKN020 TEMPO 2512/2516 2000 -SHSN SCT015TCU

Værobservasjoner og værvarsel for over 4000 flyplasser (METAR- og TAF-rapporter).

Tilgjengelige stasjoner er representert av de røde og gule prikkene på kartet.

Hold musepekeren over prikken for å se navnet på stasjonen.

Klikk så for å se værobservasjoner og -varsler.

For å forandre kartet kan du klikke på den grønne knappen med svart kryss for å zoome inn, på den grønne knappen med strek for å zoome ut, eller på de grønne pilene for å se tilstøtende kart.


METAR-TAF: